createdAt,value
2022-08-26T00:00:30.935Z,93.01
2022-08-26T00:02:58.349Z,92.83
2022-08-26T00:05:25.427Z,92.49
2022-08-26T00:07:52.945Z,92.26
2022-08-26T00:10:20.808Z,92.37
2022-08-26T00:12:52.377Z,91.56
2022-08-26T00:15:21.644Z,91.64
2022-08-26T00:17:50.323Z,91.48
2022-08-26T00:20:21.129Z,91.32
2022-08-26T00:22:47.827Z,91.29
2022-08-26T00:25:17.295Z,91.62
2022-08-26T00:27:44.141Z,91.68
2022-08-26T00:30:13.709Z,92.63
2022-08-26T00:32:44.026Z,92.82
2022-08-26T00:35:13.470Z,93.63
2022-08-26T00:37:41.701Z,93.34
2022-08-26T00:40:12.576Z,93.08
2022-08-26T00:42:39.245Z,93.20
2022-08-26T00:45:14.211Z,93.34
2022-08-26T00:47:51.705Z,93.30
2022-08-26T00:50:22.863Z,93.34
2022-08-26T00:52:50.816Z,93.56
2022-08-26T00:55:21.638Z,92.96
2022-08-26T00:57:50.690Z,93.17
2022-08-26T01:00:20.938Z,92.47
2022-08-26T01:02:49.940Z,92.85
2022-08-26T01:05:18.373Z,92.58
2022-08-26T01:07:46.213Z,92.79
2022-08-26T01:10:16.674Z,92.72
2022-08-26T01:12:47.831Z,93.13
2022-08-26T01:15:19.083Z,92.39
2022-08-26T01:17:46.011Z,92.63
2022-08-26T01:20:27.323Z,92.16
2022-08-26T01:22:57.787Z,92.30
2022-08-26T01:25:26.219Z,92.98
2022-08-26T01:27:55.802Z,93.40
2022-08-26T01:30:24.998Z,93.52
2022-08-26T01:32:52.112Z,93.06
2022-08-26T01:35:19.187Z,93.21
2022-08-26T01:37:50.191Z,92.92
2022-08-26T01:40:24.670Z,93.19
2022-08-26T01:42:53.545Z,92.95
2022-08-26T01:45:24.167Z,92.90
2022-08-26T01:47:56.588Z,92.83
2022-08-26T01:50:30.334Z,92.77
2022-08-26T01:52:58.891Z,92.50
2022-08-26T01:55:32.775Z,93.22
2022-08-26T01:58:03.305Z,93.67
2022-08-26T02:00:29.915Z,93.02
2022-08-26T02:02:57.752Z,93.40
2022-08-26T02:05:24.461Z,93.54
2022-08-26T02:07:51.071Z,93.34
2022-08-26T02:10:17.636Z,92.96
2022-08-26T02:12:48.652Z,93.38
2022-08-26T02:15:15.203Z,93.16
2022-08-26T02:17:46.877Z,93.62
2022-08-26T02:20:18.093Z,93.06
2022-08-26T02:22:45.376Z,93.18
2022-08-26T02:25:18.057Z,93.11
2022-08-26T02:27:47.824Z,92.95
2022-08-26T02:30:17.770Z,92.70
2022-08-26T02:32:44.733Z,92.99
2022-08-26T02:35:13.797Z,93.34
2022-08-26T02:37:47.248Z,92.88
2022-08-26T02:40:18.217Z,93.40
2022-08-26T02:42:44.976Z,93.42
2022-08-26T02:45:12.892Z,93.20
2022-08-26T02:47:39.611Z,93.14
2022-08-26T02:50:07.415Z,93.56
2022-08-26T02:52:34.676Z,93.59
2022-08-26T02:55:01.308Z,93.58
2022-08-26T02:57:28.902Z,94.03
2022-08-26T02:59:55.451Z,94.12
2022-08-26T03:02:24.042Z,94.22
2022-08-26T03:04:57.770Z,93.85
2022-08-26T03:07:28.775Z,94.39
2022-08-26T03:09:56.498Z,94.45
2022-08-26T03:12:23.155Z,94.50
2022-08-26T03:14:49.749Z,94.30
2022-08-26T03:17:16.335Z,94.36
2022-08-26T03:19:44.231Z,94.30
2022-08-26T03:22:11.206Z,94.19
2022-08-26T03:24:37.949Z,94.47
2022-08-26T03:27:05.995Z,94.00
2022-08-26T03:29:33.988Z,94.10
2022-08-26T03:32:00.555Z,93.64
2022-08-26T03:34:27.284Z,93.91
2022-08-26T03:36:55.740Z,93.85
2022-08-26T03:39:23.102Z,94.07
2022-08-26T03:41:49.678Z,94.08
2022-08-26T03:44:17.716Z,94.42
2022-08-26T03:46:44.441Z,94.41
2022-08-26T03:49:11.644Z,94.52
2022-08-26T03:51:38.705Z,94.84
2022-08-26T03:54:08.359Z,94.80
2022-08-26T03:56:35.604Z,94.50
2022-08-26T03:59:02.674Z,94.67
2022-08-26T04:01:30.230Z,94.95
2022-08-26T04:04:00.060Z,94.96
2022-08-26T04:06:28.758Z,94.74
2022-08-26T04:08:56.420Z,94.94
2022-08-26T04:11:27.635Z,94.82
2022-08-26T04:13:55.088Z,94.85
2022-08-26T04:16:21.933Z,95.16
2022-08-26T04:18:49.388Z,95.22
2022-08-26T04:21:15.960Z,95.19
2022-08-26T04:23:47.654Z,95.20
2022-08-26T04:26:14.805Z,95.11
2022-08-26T04:28:42.747Z,94.88
2022-08-26T04:31:10.879Z,95.02
2022-08-26T04:33:41.730Z,94.62
2022-08-26T04:36:09.135Z,94.70
2022-08-26T04:38:36.186Z,94.71
2022-08-26T04:41:05.426Z,94.58
2022-08-26T04:43:32.173Z,94.48
2022-08-26T04:46:02.828Z,94.50
2022-08-26T04:48:30.819Z,94.73
2022-08-26T04:50:57.409Z,94.55
2022-08-26T04:53:26.078Z,94.86
2022-08-26T04:55:55.254Z,94.33
2022-08-26T04:58:23.285Z,94.41
2022-08-26T05:00:52.620Z,94.19
2022-08-26T05:03:22.300Z,94.04
2022-08-26T05:05:49.613Z,93.76
2022-08-26T05:08:18.029Z,93.68
2022-08-26T05:10:47.453Z,94.62
2022-08-26T05:13:15.900Z,95.31
2022-08-26T05:15:44.062Z,95.13
2022-08-26T05:18:11.184Z,93.64
2022-08-26T05:20:41.600Z,93.31
2022-08-26T05:23:08.884Z,93.37
2022-08-26T05:25:38.033Z,93.43
2022-08-26T05:28:04.668Z,93.08
2022-08-26T05:30:32.243Z,92.51
2022-08-26T05:32:59.177Z,92.12
2022-08-26T05:35:28.266Z,92.32
2022-08-26T05:38:00.030Z,92.10
2022-08-26T05:40:27.629Z,92.74
2022-08-26T05:42:55.304Z,92.38
2022-08-26T05:45:21.872Z,91.79
2022-08-26T05:47:49.663Z,91.87
2022-08-26T05:50:17.757Z,91.21
2022-08-26T05:52:44.525Z,90.70
2022-08-26T05:55:12.437Z,90.59
2022-08-26T05:57:42.825Z,90.25
2022-08-26T06:00:11.019Z,89.96
2022-08-26T06:02:37.653Z,89.77
2022-08-26T06:05:04.754Z,89.70
2022-08-26T06:07:34.184Z,89.31
2022-08-26T06:10:28.295Z,86.36
2022-08-26T06:12:48.795Z,85.43
2022-08-26T06:15:15.614Z,84.55
2022-08-26T06:17:42.263Z,82.63
2022-08-26T06:20:10.287Z,82.43
2022-08-26T06:22:36.988Z,82.47
2022-08-26T06:25:03.814Z,81.65
2022-08-26T06:27:32.774Z,81.83
2022-08-26T06:30:00.835Z,82.54
2022-08-26T06:32:27.461Z,81.78
2022-08-26T06:34:53.997Z,79.95
2022-08-26T06:37:20.585Z,79.00
2022-08-26T06:39:47.594Z,78.24
2022-08-26T06:42:17.837Z,77.98
2022-08-26T06:44:44.972Z,77.36
2022-08-26T06:47:12.937Z,76.84
2022-08-26T06:49:39.840Z,76.72
2022-08-26T06:52:06.464Z,76.61
2022-08-26T06:54:33.018Z,74.90
2022-08-26T06:57:00.126Z,74.38
2022-08-26T06:59:26.764Z,74.58
2022-08-26T07:01:53.711Z,73.48
2022-08-26T07:04:23.256Z,73.98
2022-08-26T07:06:53.386Z,73.86
2022-08-26T07:09:22.586Z,74.26
2022-08-26T07:11:49.411Z,75.51
2022-08-26T07:14:16.019Z,75.14
2022-08-26T07:16:42.557Z,77.53
2022-08-26T07:19:11.086Z,76.27
2022-08-26T07:21:40.460Z,75.50
2022-08-26T07:24:07.232Z,74.77
2022-08-26T07:26:33.801Z,74.71
2022-08-26T07:29:01.655Z,75.20
2022-08-26T07:31:33.609Z,74.13
2022-08-26T07:34:05.687Z,73.21
2022-08-26T07:36:32.240Z,72.68
2022-08-26T07:39:00.118Z,71.86
2022-08-26T07:41:26.979Z,71.77
2022-08-26T07:43:54.458Z,70.60
2022-08-26T07:46:27.064Z,71.21
2022-08-26T07:48:57.380Z,71.30
2022-08-26T07:51:24.404Z,72.21
2022-08-26T07:53:52.897Z,72.42
2022-08-26T07:56:22.027Z,72.85
2022-08-26T07:58:51.415Z,71.85
2022-08-26T08:01:18.901Z,71.92
2022-08-26T08:03:45.524Z,71.28
2022-08-26T08:06:12.367Z,71.70
2022-08-26T08:08:38.921Z,70.13
2022-08-26T08:11:06.404Z,70.83
2022-08-26T08:13:34.620Z,69.21
2022-08-26T08:16:01.211Z,67.46
2022-08-26T08:18:27.743Z,66.58
2022-08-26T08:20:59.138Z,65.46
2022-08-26T08:23:25.929Z,64.43
2022-08-26T08:26:00.457Z,65.65
2022-08-26T08:28:27.052Z,65.12
2022-08-26T08:30:55.073Z,64.79
2022-08-26T08:33:21.659Z,66.96
2022-08-26T08:35:48.462Z,65.63
2022-08-26T08:38:15.433Z,66.53
2022-08-26T08:40:44.819Z,64.75
2022-08-26T08:43:13.303Z,65.08
2022-08-26T08:45:47.152Z,63.57
2022-08-26T08:48:24.325Z,63.52
2022-08-26T08:50:58.765Z,62.06
2022-08-26T08:53:31.955Z,62.99
2022-08-26T08:56:04.811Z,63.66
2022-08-26T08:58:46.419Z,64.16
2022-08-26T09:01:24.918Z,63.83
2022-08-26T09:04:03.855Z,64.97
2022-08-26T09:06:30.869Z,64.06
2022-08-26T09:08:57.708Z,64.02
2022-08-26T09:11:24.239Z,63.28
2022-08-26T09:13:55.050Z,62.42
2022-08-26T09:16:27.232Z,60.50
2022-08-26T09:19:19.027Z,59.29
2022-08-26T09:21:45.881Z,59.25
2022-08-26T09:24:13.996Z,59.44
2022-08-26T09:26:47.378Z,60.81
2022-08-26T09:31:48.646Z,61.71
2022-08-26T09:34:20.952Z,58.94
2022-08-26T09:36:49.668Z,59.64
2022-08-26T09:39:31.887Z,58.45
2022-08-26T09:42:07.006Z,58.82
2022-08-26T09:44:35.050Z,57.89
2022-08-26T09:47:04.714Z,58.15
2022-08-26T09:49:36.471Z,59.89
2022-08-26T09:52:15.570Z,59.16
2022-08-26T09:54:43.524Z,60.74
2022-08-26T09:57:17.500Z,58.90
2022-08-26T09:59:44.395Z,59.90
2022-08-26T10:02:23.628Z,59.39
2022-08-26T10:04:55.926Z,60.74
2022-08-26T10:07:42.223Z,61.25
2022-08-26T10:10:13.614Z,60.75
2022-08-26T10:12:46.110Z,60.04
2022-08-26T10:15:15.201Z,59.60
2022-08-26T10:17:47.361Z,59.72
2022-08-26T10:20:23.220Z,59.42
2022-08-26T10:22:58.553Z,60.79
2022-08-26T10:25:31.717Z,59.21
2022-08-26T10:28:04.117Z,59.67
2022-08-26T10:30:37.129Z,58.13
2022-08-26T10:33:07.233Z,59.50
2022-08-26T10:35:40.467Z,57.27
2022-08-26T10:38:11.131Z,56.39
2022-08-26T10:40:46.616Z,55.13
2022-08-26T10:43:19.112Z,55.61
2022-08-26T10:45:50.015Z,55.25
2022-08-26T10:48:19.009Z,55.59
2022-08-26T10:50:49.580Z,56.08
2022-08-26T10:53:25.130Z,55.20
2022-08-26T10:55:59.581Z,54.08
2022-08-26T10:58:41.018Z,54.51
2022-08-26T11:01:22.710Z,54.29
2022-08-26T11:03:58.384Z,54.91
2022-08-26T11:06:29.054Z,53.53
2022-08-26T11:08:57.767Z,52.31
2022-08-26T11:11:48.128Z,54.94
2022-08-26T11:14:34.200Z,54.12
2022-08-26T11:17:12.693Z,53.89
2022-08-26T11:20:03.326Z,53.71
2022-08-26T11:22:37.430Z,54.35
2022-08-26T11:25:11.579Z,56.49
2022-08-26T11:27:53.959Z,56.03
2022-08-26T11:30:40.109Z,57.90
2022-08-26T11:33:06.860Z,57.65
2022-08-26T11:35:49.389Z,58.06
2022-08-26T11:38:22.478Z,59.68
2022-08-26T11:41:07.873Z,60.16
2022-08-26T11:43:35.864Z,61.14
2022-08-26T11:46:05.617Z,61.76
2022-08-26T11:48:36.179Z,64.20
2022-08-26T11:51:05.621Z,67.78
2022-08-26T11:53:37.753Z,69.16
2022-08-26T11:56:08.570Z,74.78
2022-08-26T12:02:04.367Z,77.98
2022-08-26T12:04:36.250Z,82.94
2022-08-26T12:07:04.664Z,84.68
2022-08-26T12:12:54.183Z,85.58
2022-08-26T12:15:20.778Z,87.32
2022-08-26T12:17:52.993Z,86.94
2022-08-26T12:20:31.293Z,85.62
2022-08-26T12:22:58.500Z,85.77
2022-08-26T12:25:26.305Z,85.69
2022-08-26T12:27:54.239Z,85.08
2022-08-26T12:30:22.789Z,85.09
2022-08-26T12:32:57.642Z,86.45
2022-08-26T12:35:25.683Z,88.72
2022-08-26T12:37:53.906Z,88.52
2022-08-26T12:40:35.194Z,87.86
2022-08-26T12:43:05.281Z,86.99
2022-08-26T12:45:34.045Z,87.37
2022-08-26T12:48:05.985Z,86.90
2022-08-26T12:50:34.664Z,86.87
2022-08-26T12:53:04.839Z,86.41
2022-08-26T12:55:40.950Z,86.38
2022-08-26T12:58:21.554Z,87.54
2022-08-26T13:00:49.287Z,88.77
2022-08-26T13:03:37.976Z,90.38
2022-08-26T13:06:15.672Z,91.37
2022-08-26T13:08:44.167Z,91.09
2022-08-26T13:11:14.142Z,90.76
2022-08-26T13:13:42.013Z,91.23
2022-08-26T13:16:08.569Z,90.17
2022-08-26T13:18:35.171Z,89.66
2022-08-26T13:21:08.636Z,89.75
2022-08-26T13:23:38.390Z,89.06
2022-08-26T13:26:07.236Z,89.13
2022-08-26T13:28:33.841Z,90.50
2022-08-26T13:31:01.964Z,90.33
2022-08-26T13:33:28.669Z,90.23
2022-08-26T13:35:55.251Z,90.65
2022-08-26T13:38:32.964Z,90.69
2022-08-26T13:41:00.324Z,90.85
2022-08-26T13:43:27.441Z,90.59
2022-08-26T13:45:54.281Z,90.78
2022-08-26T13:48:23.515Z,90.36
2022-08-26T13:50:50.485Z,91.12
2022-08-26T13:53:17.346Z,91.78
2022-08-26T13:55:43.912Z,91.52
2022-08-26T13:58:10.781Z,91.28
2022-08-26T14:00:38.135Z,91.41
2022-08-26T14:03:05.634Z,91.81
2022-08-26T14:05:36.138Z,91.04
2022-08-26T14:08:03.677Z,90.40
2022-08-26T14:10:30.266Z,90.23
2022-08-26T14:12:56.826Z,91.56
2022-08-26T14:15:23.461Z,92.29
2022-08-26T14:17:51.605Z,93.63
2022-08-26T14:20:23.569Z,93.90
2022-08-26T14:23:12.503Z,94.03
2022-08-26T14:25:38.221Z,92.21
2022-08-26T14:28:04.733Z,91.87
2022-08-26T14:30:31.673Z,93.34
2022-08-26T14:32:58.891Z,92.37
2022-08-26T14:35:27.806Z,93.44
2022-08-26T14:37:56.462Z,91.80
2022-08-26T14:40:27.168Z,91.76
2022-08-26T14:42:54.361Z,92.11
2022-08-26T14:45:23.805Z,91.54
2022-08-26T14:47:51.797Z,89.74
2022-08-26T14:50:21.382Z,89.38
2022-08-26T14:52:48.074Z,89.44
2022-08-26T14:55:15.974Z,90.00
2022-08-26T14:57:42.488Z,89.01
2022-08-26T15:00:10.373Z,88.83
2022-08-26T15:02:36.945Z,89.02
2022-08-26T15:05:03.857Z,92.50
2022-08-26T15:07:30.972Z,93.88
2022-08-26T15:09:57.918Z,94.00
2022-08-26T15:12:25.850Z,93.69
2022-08-26T15:14:52.354Z,92.98
2022-08-26T15:17:18.898Z,92.82
2022-08-26T15:19:45.413Z,92.36
2022-08-26T15:22:11.968Z,93.73
2022-08-26T15:24:38.525Z,93.75
2022-08-26T15:27:05.173Z,93.62
2022-08-26T15:29:33.219Z,94.48
2022-08-26T15:32:03.461Z,93.10
2022-08-26T15:34:30.294Z,91.49
2022-08-26T15:36:56.821Z,89.48
2022-08-26T15:39:24.028Z,87.39
2022-08-26T15:41:50.740Z,86.52
2022-08-26T15:44:17.293Z,85.81
2022-08-26T15:46:47.184Z,85.07
2022-08-26T15:49:17.542Z,84.79
2022-08-26T15:51:46.345Z,85.61
2022-08-26T15:54:13.607Z,84.13
2022-08-26T15:56:40.136Z,83.70
2022-08-26T15:59:07.367Z,82.84
2022-08-26T16:01:34.071Z,83.55
2022-08-26T16:04:02.704Z,87.97
2022-08-26T16:06:31.148Z,90.65
2022-08-26T16:08:58.357Z,90.77
2022-08-26T16:11:25.512Z,89.92
2022-08-26T16:13:52.238Z,90.80
2022-08-26T16:16:19.025Z,91.46
2022-08-26T16:18:45.679Z,91.62
2022-08-26T16:21:16.660Z,91.97
2022-08-26T16:23:45.324Z,92.58
2022-08-26T16:26:14.977Z,91.83
2022-08-26T16:28:41.535Z,91.04
2022-08-26T16:31:10.765Z,90.46
2022-08-26T16:33:37.354Z,90.09
2022-08-26T16:36:04.071Z,89.63
2022-08-26T16:38:32.289Z,90.59
2022-08-26T16:40:58.942Z,91.96
2022-08-26T16:43:25.495Z,92.32
2022-08-26T16:45:52.078Z,91.50
2022-08-26T16:48:18.620Z,91.20
2022-08-26T16:50:45.381Z,92.73
2022-08-26T16:55:46.252Z,91.55
2022-08-26T16:58:12.801Z,91.18
2022-08-26T17:00:39.353Z,90.08
2022-08-26T17:03:05.943Z,90.12
2022-08-26T17:05:32.522Z,89.89
2022-08-26T17:08:00.125Z,90.08
2022-08-26T17:10:28.560Z,90.59
2022-08-26T17:12:57.174Z,92.07
2022-08-26T17:15:24.376Z,91.64
2022-08-26T17:17:51.353Z,91.52
2022-08-26T17:20:18.581Z,91.47
2022-08-26T17:22:47.367Z,91.58
2022-08-26T17:25:16.418Z,91.02
2022-08-26T17:27:43.419Z,90.37
2022-08-26T17:30:12.614Z,90.88
2022-08-26T17:32:39.242Z,91.06
2022-08-26T17:35:06.190Z,91.32
2022-08-26T17:37:32.815Z,91.54
2022-08-26T17:39:59.386Z,91.98
2022-08-26T17:42:31.831Z,91.94
2022-08-26T17:44:58.521Z,92.27
2022-08-26T17:47:26.501Z,92.61
2022-08-26T17:49:53.032Z,94.13
2022-08-26T17:52:19.635Z,94.19
2022-08-26T17:54:46.142Z,94.31
2022-08-26T17:57:12.669Z,95.14
2022-08-26T17:59:39.174Z,94.55
2022-08-26T18:02:07.865Z,94.57
2022-08-26T18:04:35.741Z,94.36
2022-08-26T18:07:02.297Z,94.10
2022-08-26T18:09:29.354Z,93.78
2022-08-26T18:11:55.879Z,93.26
2022-08-26T18:14:22.397Z,92.64
2022-08-26T18:16:49.279Z,93.55
2022-08-26T18:19:15.818Z,93.43
2022-08-26T18:21:44.014Z,92.45
2022-08-26T18:24:14.070Z,92.11
2022-08-26T18:26:42.321Z,91.91
2022-08-26T18:29:08.853Z,92.03
2022-08-26T18:31:35.438Z,91.56
2022-08-26T18:34:02.872Z,91.99
2022-08-26T18:36:32.778Z,92.12
2022-08-26T18:39:00.910Z,93.23
2022-08-26T18:41:31.161Z,93.22
2022-08-26T18:43:58.414Z,94.40
2022-08-26T18:46:27.322Z,94.53
2022-08-26T18:48:55.152Z,95.16
2022-08-26T18:51:24.739Z,95.56
2022-08-26T18:53:51.474Z,96.00
2022-08-26T18:56:19.630Z,96.01
2022-08-26T18:58:46.633Z,95.29
2022-08-26T19:01:13.457Z,94.80
2022-08-26T19:03:40.083Z,94.48
2022-08-26T19:06:07.121Z,93.95
2022-08-26T19:08:33.654Z,93.66
2022-08-26T19:11:00.728Z,93.80
2022-08-26T19:13:28.590Z,93.55
2022-08-26T19:15:55.146Z,93.96
2022-08-26T19:18:21.659Z,93.91
2022-08-26T19:20:48.168Z,94.56
2022-08-26T19:23:31.074Z,94.52
2022-08-26T19:25:58.679Z,94.99
2022-08-26T19:28:25.225Z,94.78
2022-08-26T19:30:54.763Z,95.07
2022-08-26T19:33:21.674Z,95.33
2022-08-26T19:35:48.204Z,95.28
2022-08-26T19:38:14.751Z,95.52
2022-08-26T19:40:41.503Z,96.38
2022-08-26T19:43:08.735Z,96.16
2022-08-26T19:45:38.740Z,95.79
2022-08-26T19:48:06.740Z,95.94
2022-08-26T19:50:34.486Z,95.82
2022-08-26T19:53:01.611Z,95.52
2022-08-26T19:55:28.132Z,95.21
2022-08-26T19:57:54.765Z,95.62
2022-08-26T20:00:24.512Z,95.21
2022-08-26T20:02:51.520Z,95.13
2022-08-26T20:05:21.640Z,95.44
2022-08-26T20:07:48.896Z,95.20
2022-08-26T20:10:17.813Z,95.45
2022-08-26T20:12:44.406Z,95.17
2022-08-26T20:15:12.867Z,94.84
2022-08-26T20:17:40.230Z,94.59
2022-08-26T20:20:14.710Z,93.86
2022-08-26T20:22:57.410Z,93.64
2022-08-26T20:25:24.054Z,93.35
2022-08-26T20:27:50.649Z,93.39
2022-08-26T20:30:17.291Z,93.65
2022-08-26T20:32:43.815Z,94.39
2022-08-26T20:35:12.941Z,94.19
2022-08-26T20:37:40.020Z,94.56
2022-08-26T20:40:10.263Z,94.76
2022-08-26T20:42:36.808Z,94.71
2022-08-26T20:45:04.155Z,94.96
2022-08-26T20:47:30.732Z,94.62
2022-08-26T20:49:57.392Z,95.00
2022-08-26T20:52:23.933Z,95.41
2022-08-26T20:54:50.454Z,95.10
2022-08-26T20:57:18.301Z,95.36
2022-08-26T20:59:44.795Z,95.27
2022-08-26T21:02:11.301Z,95.08
2022-08-26T21:04:37.840Z,95.24
2022-08-26T21:07:04.464Z,95.15
2022-08-26T21:09:32.557Z,95.42
2022-08-26T21:11:59.066Z,95.52
2022-08-26T21:14:26.941Z,95.57
2022-08-26T21:16:53.672Z,95.68
2022-08-26T21:19:20.358Z,95.75
2022-08-26T21:21:48.513Z,95.69
2022-08-26T21:24:15.436Z,95.83
2022-08-26T21:26:42.472Z,96.34
2022-08-26T21:29:09.104Z,96.03
2022-08-26T21:31:40.954Z,96.09
2022-08-26T21:34:11.513Z,96.23
2022-08-26T21:36:38.108Z,96.00
2022-08-26T21:39:09.300Z,96.00
2022-08-26T21:41:38.338Z,96.15
2022-08-26T21:44:04.826Z,96.19
2022-08-26T21:46:31.691Z,96.11
2022-08-26T21:49:01.076Z,95.41
2022-08-26T21:51:29.598Z,95.76
2022-08-26T21:53:56.901Z,95.45
2022-08-26T21:56:26.189Z,95.73
2022-08-26T21:58:53.424Z,95.79
2022-08-26T22:01:22.135Z,96.00
2022-08-26T22:03:49.593Z,96.17
2022-08-26T22:06:19.779Z,96.22
2022-08-26T22:08:46.658Z,96.09
2022-08-26T22:11:13.518Z,96.50
2022-08-26T22:13:42.256Z,96.39
2022-08-26T22:16:09.488Z,96.33
2022-08-26T22:18:36.440Z,96.29
2022-08-26T22:21:06.033Z,96.59
2022-08-26T22:23:34.459Z,96.68
2022-08-26T22:26:01.236Z,96.79
2022-08-26T22:28:28.150Z,96.18
2022-08-26T22:30:54.959Z,96.30
2022-08-26T22:33:22.319Z,97.17
2022-08-26T22:35:49.924Z,97.74
2022-08-26T22:38:17.394Z,97.54
2022-08-26T22:40:46.858Z,97.68
2022-08-26T22:43:14.274Z,98.03
2022-08-26T22:45:41.454Z,97.60
2022-08-26T22:48:09.464Z,98.34
2022-08-26T22:50:36.491Z,98.49
2022-08-26T22:53:03.556Z,98.31
2022-08-26T22:55:30.256Z,98.28
2022-08-26T22:57:58.134Z,98.99
2022-08-26T23:00:32.028Z,98.59
2022-08-26T23:02:59.967Z,98.60
2022-08-26T23:05:26.512Z,98.52
2022-08-26T23:07:53.220Z,98.33
2022-08-26T23:10:19.941Z,98.44
2022-08-26T23:12:46.463Z,98.35
2022-08-26T23:15:14.477Z,98.27
2022-08-26T23:17:42.844Z,98.13
2022-08-26T23:20:11.540Z,98.21
2022-08-26T23:22:39.018Z,98.47
2022-08-26T23:25:07.997Z,97.97
2022-08-26T23:27:35.378Z,98.28
2022-08-26T23:30:01.889Z,98.03
2022-08-26T23:32:29.767Z,96.98
2022-08-26T23:34:56.269Z,96.31
2022-08-26T23:37:23.146Z,96.23
2022-08-26T23:39:51.730Z,96.37
2022-08-26T23:42:18.418Z,96.20
2022-08-26T23:44:44.966Z,96.40
2022-08-26T23:47:12.048Z,96.81
2022-08-26T23:49:40.420Z,96.58
2022-08-26T23:52:07.634Z,96.77
2022-08-26T23:54:34.220Z,96.67
2022-08-26T23:57:00.765Z,96.34
2022-08-26T23:59:27.291Z,96.62
